Time;durP1;ratioP1;P1;durP2;ratioP2;P2;SDS_P1;SDS_P2;PMS_P1;PMS_P2;Temp;Humidity;BMP_temperature;BMP_pressure;BME280_temperature;BME280_humidity;BME280_pressure;Samples;Min_cycle;Max_cycle;Signal;HPM_P1;HPM_P2
2023/12/04 00:02:16;;;;;;;17.58;6.93;;;;;;;2.23;100.00;101186.59;5207138;28;20033;-73
2023/12/04 00:04:46;;;;;;;19.55;6.90;;;;;;;2.21;100.00;101183.22;5204544;28;20033;-73
2023/12/04 00:07:17;;;;;;;16.08;6.22;;;;;;;2.25;100.00;101179.38;5211650;28;20037;-73
2023/12/04 00:09:47;;;;;;;19.02;7.47;;;;;;;2.24;100.00;101167.09;5209345;28;20676;-73
2023/12/04 00:12:18;;;;;;;22.55;7.40;;;;;;;2.18;100.00;101164.88;5209765;28;20116;-73
2023/12/04 00:14:48;;;;;;;20.52;8.07;;;;;;;2.23;100.00;101159.28;5205702;28;20033;-73
2023/12/04 00:17:19;;;;;;;16.90;6.95;;;;;;;2.21;100.00;101159.41;5207155;28;20029;-73
2023/12/04 00:19:49;;;;;;;18.02;7.07;;;;;;;2.18;100.00;101154.28;5204313;28;20079;-73
2023/12/04 00:22:20;;;;;;;16.45;7.47;;;;;;;2.17;100.00;101162.34;5208184;28;20311;-73
2023/12/04 00:24:50;;;;;;;14.18;6.53;;;;;;;2.14;100.00;101149.31;5208928;28;20021;-73
2023/12/04 00:27:26;;;;;;;23.88;7.10;;;;;;;2.17;100.00;101157.91;5209103;28;20036;-73
2023/12/04 00:29:57;;;;;;;20.33;7.13;;;;;;;2.12;100.00;101151.22;5208731;28;20053;-73
2023/12/04 00:32:27;;;;;;;17.60;6.72;;;;;;;2.16;100.00;101147.41;5210442;28;20041;-73
2023/12/04 00:34:58;;;;;;;17.20;6.57;;;;;;;2.17;100.00;101143.81;5208131;28;20030;-73
2023/12/04 00:37:28;;;;;;;15.90;6.85;;;;;;;2.20;100.00;101130.34;5212621;28;20115;-73
2023/12/04 00:39:59;;;;;;;16.83;7.07;;;;;;;2.16;100.00;101126.22;5208499;28;20472;-73
2023/12/04 00:42:29;;;;;;;15.07;5.63;;;;;;;2.11;100.00;101123.03;5206488;28;20024;-73
2023/12/04 00:45:00;;;;;;;15.20;6.15;;;;;;;2.10;100.00;101127.50;5205134;28;20025;-73
2023/12/04 00:47:30;;;;;;;16.55;6.50;;;;;;;2.11;100.00;101121.28;5206783;28;20043;-73
2023/12/04 00:50:01;;;;;;;14.65;5.68;;;;;;;2.12;100.00;101117.66;5209062;28;20064;-73
2023/12/04 00:52:31;;;;;;;13.82;5.18;;;;;;;2.16;100.00;101111.22;5207762;28;20120;-73
2023/12/04 00:55:02;;;;;;;17.35;6.70;;;;;;;2.14;100.00;101106.97;5206364;28;20029;-72
2023/12/04 00:57:32;;;;;;;13.50;5.43;;;;;;;2.13;100.00;101103.47;5206130;28;20115;-73
2023/12/04 01:00:03;;;;;;;12.55;5.72;;;;;;;2.04;100.00;101101.47;5204691;28;20033;-73
2023/12/04 01:02:34;;;;;;;15.60;6.40;;;;;;;2.04;100.00;101107.59;5209607;28;20094;-73
2023/12/04 01:05:05;;;;;;;11.70;5.07;;;;;;;2.03;100.00;101099.75;5206197;28;20102;-73
2023/12/04 01:07:35;;;;;;;17.45;6.07;;;;;;;2.10;100.00;101094.88;5207442;28;20059;-73
2023/12/04 01:10:06;;;;;;;12.13;5.72;;;;;;;2.11;100.00;101089.50;5204995;28;20063;-73
2023/12/04 01:12:37;;;;;;;14.32;5.43;;;;;;;2.18;100.00;101089.94;5208395;28;20036;-73
2023/12/04 01:15:07;;;;;;;12.77;5.60;;;;;;;2.19;100.00;101092.47;5210518;28;20029;-72
2023/12/04 01:17:38;;;;;;;13.23;5.60;;;;;;;2.24;100.00;101086.84;5207795;28;20064;-73
2023/12/04 01:20:09;;;;;;;13.00;5.72;;;;;;;2.21;100.00;101095.88;5207859;28;20021;-72
2023/12/04 01:22:39;;;;;;;14.48;5.95;;;;;;;2.14;100.00;101099.03;5209907;28;20575;-73
2023/12/04 01:25:10;;;;;;;13.43;5.30;;;;;;;2.17;100.00;101089.09;5209664;28;20108;-72
2023/12/04 01:27:41;;;;;;;11.80;5.35;;;;;;;2.18;100.00;101093.41;5202558;28;20029;-73
2023/12/04 01:30:13;;;;;;;12.85;5.60;;;;;;;2.11;100.00;101083.34;5206011;28;20040;-73
2023/12/04 01:32:44;;;;;;;13.27;5.13;;;;;;;2.11;100.00;101081.56;5207324;28;20029;-73
2023/12/04 01:35:14;;;;;;;12.52;5.45;;;;;;;2.20;100.00;101072.13;5206633;28;20040;-73
2023/12/04 01:37:45;;;;;;;14.32;5.35;;;;;;;2.12;100.00;101077.13;5205535;28;20029;-73
2023/12/04 01:40:15;;;;;;;13.90;5.53;;;;;;;2.10;100.00;101068.41;5207810;28;20029;-73
2023/12/04 01:42:46;;;;;;;13.18;4.82;;;;;;;2.15;100.00;101064.50;5202529;28;20025;-73
2023/12/04 01:45:16;;;;;;;15.23;5.72;;;;;;;2.15;100.00;101071.59;5208579;28;20034;-73
2023/12/04 01:47:47;;;;;;;15.95;5.55;;;;;;;2.13;100.00;101062.94;5210808;28;20024;-73
2023/12/04 01:50:18;;;;;;;13.68;5.13;;;;;;;2.13;100.00;101062.94;5207703;28;20060;-73
2023/12/04 01:52:50;;;;;;;11.45;4.82;;;;;;;2.15;100.00;101056.56;5208133;28;20029;-73
2023/12/04 01:55:21;;;;;;;14.65;6.05;;;;;;;2.24;100.00;101058.56;5204797;28;20029;-73
2023/12/04 01:57:53;;;;;;;13.68;5.57;;;;;;;2.19;100.00;101052.75;5203735;28;20021;-73
2023/12/04 02:00:24;;;;;;;14.82;5.68;;;;;;;2.21;100.00;101060.56;5208423;28;20025;-73
2023/12/04 02:02:55;;;;;;;13.07;5.43;;;;;;;2.22;100.00;101052.56;5209961;28;20044;-73
2023/12/04 02:05:27;;;;;;;13.85;4.88;;;;;;;2.27;100.00;101044.28;5208195;28;20055;-73
2023/12/04 02:08:00;;;;;;;11.18;5.00;;;;;;;2.21;100.00;101040.28;5210101;28;20048;-74
2023/12/04 02:10:30;;;;;;;11.70;5.15;;;;;;;2.19;100.00;101033.38;5206467;28;20025;-73
2023/12/04 02:13:01;;;;;;;10.40;5.10;;;;;;;2.27;100.00;101031.06;5207619;28;20036;-73
2023/12/04 02:15:43;;;;;;;15.27;5.65;;;;;;;2.23;100.00;101022.47;5208065;28;20188;-73
2023/12/04 02:18:14;;;;;;;14.43;5.20;;;;;;;2.23;100.00;101022.47;5206808;28;20108;-73
2023/12/04 02:20:45;;;;;;;13.02;5.53;;;;;;;2.26;100.00;101018.75;5209013;28;20063;-73
2023/12/04 02:23:16;;;;;;;13.05;5.32;;;;;;;2.20;100.00;101016.53;5206807;28;20025;-73
2023/12/04 02:25:46;;;;;;;14.13;4.85;;;;;;;2.17;100.00;101017.63;5206934;28;20021;-73
2023/12/04 02:28:18;;;;;;;13.75;5.38;;;;;;;2.26;100.00;101016.09;5205156;28;20277;-73
2023/12/04 02:30:49;;;;;;;13.50;5.13;;;;;;;2.23;100.00;101017.16;5205496;28;20056;-73
2023/12/04 02:33:24;;;;;;;15.63;5.95;;;;;;;2.22;100.00;101006.69;5208851;28;20032;-73
2023/12/04 02:35:55;;;;;;;12.20;4.93;;;;;;;2.26;100.00;101006.38;5206559;28;20028;-73
2023/12/04 02:38:27;;;;;;;15.13;5.93;;;;;;;2.23;100.00;101006.59;5211937;28;20025;-73
2023/12/04 02:40:58;;;;;;;14.82;5.70;;;;;;;2.31;100.00;100998.13;5203765;28;20503;-73
2023/12/04 02:43:28;;;;;;;14.30;5.28;;;;;;;2.32;100.00;100989.22;5204220;28;20029;-72
2023/12/04 02:46:00;;;;;;;13.85;5.28;;;;;;;2.27;100.00;100986.88;5206784;28;20022;-72
2023/12/04 02:48:30;;;;;;;11.25;5.28;;;;;;;2.27;100.00;100970.16;5203001;28;20095;-72
2023/12/04 02:51:03;;;;;;;12.43;5.35;;;;;;;2.27;100.00;100967.50;5204858;28;20021;-73
2023/12/04 02:53:34;;;;;;;13.55;5.55;;;;;;;2.31;100.00;100969.84;5207986;28;20037;-73
2023/12/04 02:56:05;;;;;;;11.52;5.25;;;;;;;2.29;100.00;100962.94;5205397;28;20416;-73
2023/12/04 02:58:36;;;;;;;13.65;5.30;;;;;;;2.33;100.00;100948.53;5206638;28;20108;-72
2023/12/04 03:01:06;;;;;;;12.82;5.00;;;;;;;2.29;100.00;100950.53;5209035;28;20397;-73
2023/12/04 03:03:37;;;;;;;11.65;5.10;;;;;;;2.29;100.00;100949.69;5214722;28;20025;-72
2023/12/04 03:06:08;;;;;;;13.05;5.30;;;;;;;2.37;100.00;100942.06;5210394;28;20032;-73
2023/12/04 03:08:38;;;;;;;12.63;5.05;;;;;;;2.40;100.00;100938.34;5210562;28;20080;-73
2023/12/04 03:11:09;;;;;;;14.07;5.05;;;;;;;2.43;100.00;100933.66;5209861;28;20381;-73
2023/12/04 03:13:40;;;;;;;11.90;5.53;;;;;;;2.35;100.00;100930.72;5209925;28;20384;-73
2023/12/04 03:16:16;;;;;;;10.85;5.13;;;;;;;2.33;100.00;100927.34;5210399;28;20044;-73
2023/12/04 03:18:47;;;;;;;13.00;5.25;;;;;;;2.28;100.00;100925.03;5211123;28;20021;-73
2023/12/04 03:21:17;;;;;;;17.25;6.68;;;;;;;2.28;100.00;100922.38;5213795;28;20040;-73
2023/12/04 03:23:48;;;;;;;11.10;5.13;;;;;;;2.32;100.00;100925.66;5212472;28;21210;-74
2023/12/04 03:26:19;;;;;;;10.30;4.85;;;;;;;2.33;100.00;100911.47;5208357;28;20052;-74
2023/12/04 03:28:49;;;;;;;12.65;5.25;;;;;;;2.34;100.00;100908.69;5211588;28;20064;-74
2023/12/04 03:31:21;;;;;;;14.75;4.95;;;;;;;2.28;100.00;100903.84;5213262;28;20029;-73
2023/12/04 03:33:55;;;;;;;13.15;5.68;;;;;;;2.27;100.00;100899.53;5211775;28;20061;-74
2023/12/04 03:36:25;;;;;;;13.25;5.55;;;;;;;2.33;100.00;100898.22;5211413;28;20318;-74
2023/12/04 03:38:56;;;;;;;11.68;5.00;;;;;;;2.35;100.00;100888.34;5209445;28;20021;-74
2023/12/04 03:41:27;;;;;;;12.77;5.35;;;;;;;2.30;100.00;100885.19;5209240;28;20566;-74
2023/12/04 03:43:57;;;;;;;12.40;5.45;;;;;;;2.37;100.00;100881.16;5209016;28;20029;-74
2023/12/04 03:46:28;;;;;;;10.10;4.78;;;;;;;2.30;100.00;100875.47;5211605;28;20032;-74
2023/12/04 03:48:59;;;;;;;13.90;5.45;;;;;;;2.21;100.00;100862.03;5209079;28;20514;-74
2023/12/04 03:51:29;;;;;;;13.20;5.63;;;;;;;2.17;100.00;100869.38;5210998;28;20043;-74
2023/12/04 03:54:00;;;;;;;12.80;6.38;;;;;;;2.22;100.00;100861.13;5209565;28;20477;-74
2023/12/04 03:56:30;;;;;;;11.60;5.15;;;;;;;2.23;100.00;100847.75;5213476;28;20029;-74
2023/12/04 03:59:01;;;;;;;13.00;5.28;;;;;;;2.21;100.00;100847.03;5208526;28;20025;-74
2023/12/04 04:01:31;;;;;;;15.52;6.22;;;;;;;2.19;100.00;100841.00;5209325;28;20031;-74
2023/12/04 04:04:02;;;;;;;14.70;5.55;;;;;;;2.19;100.00;100834.84;5211704;28;20032;-73
2023/12/04 04:06:32;;;;;;;12.70;5.13;;;;;;;2.20;100.00;100831.25;5210874;28;20509;-73
2023/12/04 04:09:03;;;;;;;14.02;5.65;;;;;;;2.16;100.00;100825.34;5208566;28;20025;-73
2023/12/04 04:11:35;;;;;;;15.95;5.57;;;;;;;2.11;100.00;100823.97;5210887;28;20029;-73
2023/12/04 04:14:05;;;;;;;10.98;4.95;;;;;;;2.15;100.00;100818.34;5205053;28;20041;-73
2023/12/04 04:16:36;;;;;;;15.32;5.90;;;;;;;2.13;100.00;100812.34;5210110;28;20021;-73
2023/12/04 04:19:06;;;;;;;12.52;5.55;;;;;;;2.15;100.00;100809.56;5211371;28;20500;-73
2023/12/04 04:21:43;;;;;;;13.57;5.47;;;;;;;2.13;100.00;100803.56;5209386;28;20037;-73
2023/12/04 04:24:13;;;;;;;15.75;5.85;;;;;;;2.14;100.00;100808.72;5214115;28;20053;-73
2023/12/04 04:26:44;;;;;;;14.13;5.50;;;;;;;2.18;100.00;100812.00;5207664;28;20041;-73
2023/12/04 04:29:14;;;;;;;18.98;7.20;;;;;;;2.14;100.00;100815.81;5207489;28;20029;-73
2023/12/04 04:31:45;;;;;;;13.50;5.88;;;;;;;2.14;100.00;100808.72;5210642;28;20021;-73
2023/12/04 04:34:15;;;;;;;14.10;6.28;;;;;;;2.16;100.00;100814.78;5210520;28;20048;-73
2023/12/04 04:36:46;;;;;;;16.20;7.07;;;;;;;2.13;100.00;100812.34;5209340;28;20025;-73
2023/12/04 04:39:16;;;;;;;14.45;6.13;;;;;;;2.13;100.00;100830.88;5212134;28;20041;-73
2023/12/04 04:41:47;;;;;;;15.07;6.53;;;;;;;2.15;100.00;100818.34;5209417;28;20571;-73
2023/12/04 04:44:17;;;;;;;17.15;6.28;;;;;;;2.13;100.00;100814.97;5212414;28;20025;-73
2023/12/04 04:46:47;;;;;;;15.18;6.13;;;;;;;2.13;100.00;100820.28;5208918;28;20014;-73
2023/12/04 04:49:18;;;;;;;14.50;6.95;;;;;;;2.14;100.00;100811.38;5210935;28;20075;-73
2023/12/04 04:51:48;;;;;;;15.30;6.88;;;;;;;2.15;100.00;100806.91;5210589;28;20523;-73
2023/12/04 04:54:19;;;;;;;14.73;5.57;;;;;;;2.13;100.00;100796.44;5210781;28;20029;-73
2023/12/04 04:56:51;;;;;;;15.57;6.25;;;;;;;2.13;100.00;100788.50;5204846;28;20021;-73
2023/12/04 04:59:21;;;;;;;14.35;6.32;;;;;;;2.12;100.00;100776.25;5208776;28;20412;-73
2023/12/04 05:01:51;;;;;;;13.30;5.95;;;;;;;2.11;100.00;100765.75;5210056;28;20029;-73
2023/12/04 05:04:22;;;;;;;12.57;6.22;;;;;;;2.16;100.00;100774.19;5211944;28;20033;-74
2023/12/04 05:06:53;;;;;;;15.82;5.88;;;;;;;2.15;100.00;100770.72;5210670;28;20060;-73
2023/12/04 05:09:24;;;;;;;15.10;6.63;;;;;;;2.18;100.00;100770.50;5210582;28;20020;-74
2023/12/04 05:11:54;;;;;;;17.95;6.35;;;;;;;2.17;100.00;100779.41;5209720;28;20034;-73
2023/12/04 05:14:26;;;;;;;13.32;5.35;;;;;;;2.15;100.00;100773.34;5208721;28;20458;-73
2023/12/04 05:16:57;;;;;;;13.63;5.88;;;;;;;2.19;100.00;100772.16;5205595;28;20048;-73
2023/12/04 05:19:27;;;;;;;14.85;6.05;;;;;;;2.19;100.00;100761.59;5211683;28;20029;-73
2023/12/04 05:21:58;;;;;;;16.23;6.28;;;;;;;2.19;100.00;100758.09;5205869;28;20075;-73
2023/12/04 05:24:28;;;;;;;15.25;5.43;;;;;;;2.13;100.00;100758.56;5212531;28;20032;-73
2023/12/04 05:26:59;;;;;;;12.38;5.82;;;;;;;2.18;100.00;100765.19;5207376;28;20025;-73
2023/12/04 05:29:29;;;;;;;13.10;5.78;;;;;;;2.19;100.00;100751.00;5209165;28;20569;-73
2023/12/04 05:32:00;;;;;;;15.32;6.47;;;;;;;2.20;100.00;100755.31;5209362;28;20029;-73
2023/12/04 05:34:30;;;;;;;14.32;5.75;;;;;;;2.18;100.00;100754.59;5206005;28;20029;-73
2023/12/04 05:37:01;;;;;;;14.90;6.15;;;;;;;2.17;100.00;100752.09;5209793;28;20029;-73
2023/12/04 05:39:31;;;;;;;13.32;5.40;;;;;;;2.18;100.00;100746.66;5210895;28;20060;-73
2023/12/04 05:42:03;;;;;;;11.68;5.45;;;;;;;2.16;100.00;100747.72;5206131;28;20021;-73
2023/12/04 05:44:34;;;;;;;16.58;5.90;;;;;;;2.23;100.00;100741.03;5206026;28;20089;-73
2023/12/04 05:47:05;;;;;;;16.27;6.72;;;;;;;2.23;100.00;100749.81;5210201;28;20020;-73
2023/12/04 05:49:35;;;;;;;14.50;5.72;;;;;;;2.20;100.00;100760.63;5205941;28;20488;-73
2023/12/04 05:52:06;;;;;;;15.02;6.03;;;;;;;2.22;100.00;100750.78;5208933;28;20091;-73
2023/12/04 05:54:37;;;;;;;14.10;6.15;;;;;;;2.19;100.00;100740.41;5210721;28;20033;-73
2023/12/04 05:57:07;;;;;;;12.27;5.60;;;;;;;2.22;100.00;100721.66;5205121;28;20051;-72
2023/12/04 05:59:38;;;;;;;12.50;5.38;;;;;;;2.24;100.00;100727.69;5210928;28;20407;-73
2023/12/04 06:02:09;;;;;;;9.93;5.07;;;;;;;2.26;100.00;100724.91;5210874;28;20029;-73
2023/12/04 06:04:39;;;;;;;9.90;4.70;;;;;;;2.24;100.00;100722.38;5211532;28;20533;-74
2023/12/04 06:07:10;;;;;;;15.95;5.57;;;;;;;2.30;100.00;100716.63;5205423;28;20025;-73
2023/12/04 06:09:40;;;;;;;11.70;5.07;;;;;;;2.27;100.00;100710.72;5205506;28;20180;-73
2023/12/04 06:12:16;;;;;;;12.75;5.18;;;;;;;2.26;100.00;100701.06;5208973;28;20385;-73
2023/12/04 06:14:47;;;;;;;10.45;4.50;;;;;;;2.29;100.00;100704.34;5189600;28;20079;-73
2023/12/04 06:17:17;;;;;;;12.50;5.63;;;;;;;2.31;100.00;100713.03;5211311;28;20045;-73
2023/12/04 06:19:48;;;;;;;12.50;5.35;;;;;;;2.31;100.00;100696.31;5209339;28;20071;-73
2023/12/04 06:22:19;;;;;;;9.70;4.97;;;;;;;2.34;100.00;100693.41;5210215;28;20368;-73
2023/12/04 06:24:50;;;;;;;12.90;5.10;;;;;;;2.41;100.00;100691.13;5209747;28;20380;-73
2023/12/04 06:27:21;;;;;;;12.95;5.53;;;;;;;2.37;100.00;100693.19;5206824;28;20304;-73
2023/12/04 06:29:52;;;;;;;14.20;5.72;;;;;;;2.38;100.00;100680.78;5208051;28;20021;-73
2023/12/04 06:32:23;;;;;;;11.15;4.85;;;;;;;2.36;100.00;100690.63;5208301;28;20032;-73
2023/12/04 06:34:55;;;;;;;12.55;5.57;;;;;;;2.33;100.00;100691.72;5195962;28;20025;-73
2023/12/04 06:37:26;;;;;;;12.85;5.35;;;;;;;2.34;100.00;100686.31;5200687;28;20171;-73
2023/12/04 06:40:02;;;;;;;11.48;5.40;;;;;;;2.33;100.00;100679.34;5204718;28;20116;-73
2023/12/04 06:42:33;;;;;;;12.27;5.53;;;;;;;2.29;100.00;100677.88;5203294;28;20087;-73
2023/12/04 06:45:04;;;;;;;18.67;5.88;;;;;;;2.29;100.00;100682.31;5204420;28;20188;-73
2023/12/04 06:47:36;;;;;;;13.43;4.70;;;;;;;2.24;100.00;100682.69;5206254;28;20554;-73
2023/12/04 06:50:07;;;;;;;12.27;5.18;;;;;;;2.31;100.00;100677.78;5209117;28;20036;-73
2023/12/04 06:52:38;;;;;;;10.45;4.78;;;;;;;2.29;100.00;100684.97;5206272;28;20099;-73
2023/12/04 06:55:09;;;;;;;10.93;4.90;;;;;;;2.31;100.00;100681.25;5200764;28;20025;-73
2023/12/04 06:57:39;;;;;;;9.23;4.22;;;;;;;2.31;100.00;100688.38;5206868;28;20035;-73
2023/12/04 07:00:12;;;;;;;9.48;5.03;;;;;;;2.36;100.00;100688.84;5207238;28;20623;-73
2023/12/04 07:02:42;;;;;;;8.02;4.05;;;;;;;2.38;100.00;100686.09;5209980;28;20036;-73
2023/12/04 07:05:13;;;;;;;9.85;4.32;;;;;;;2.46;100.00;100683.66;5207187;28;20036;-73
2023/12/04 07:07:43;;;;;;;13.00;4.80;;;;;;;2.43;100.00;100679.47;5207240;28;20021;-73
2023/12/04 07:10:14;;;;;;;13.00;4.53;;;;;;;2.48;100.00;100661.41;5223273;28;20511;-73
2023/12/04 07:12:45;;;;;;;11.85;4.82;;;;;;;2.62;100.00;100665.66;5208086;28;20029;-73
2023/12/04 07:15:16;;;;;;;9.20;4.47;;;;;;;2.84;100.00;100660.34;5202359;28;20033;-73
2023/12/04 07:17:47;;;;;;;7.38;3.75;;;;;;;2.93;100.00;100661.44;5207273;28;20395;-73
2023/12/04 07:20:18;;;;;;;12.90;4.00;;;;;;;3.00;100.00;100648.53;5210006;28;20231;-73
2023/12/04 07:22:49;;;;;;;9.95;4.65;;;;;;;2.99;100.00;100645.03;5206054;28;20396;-73
2023/12/04 07:25:20;;;;;;;9.18;4.28;;;;;;;2.95;100.00;100643.59;5210067;28;20029;-73
2023/12/04 07:27:50;;;;;;;7.28;4.13;;;;;;;2.98;100.00;100637.22;5204993;28;20024;-73
2023/12/04 07:30:21;;;;;;;8.63;4.15;;;;;;;3.03;100.00;100632.41;5209087;28;20036;-73
2023/12/04 07:32:51;;;;;;;10.73;4.55;;;;;;;2.99;100.00;100631.78;5208138;28;20488;-73
2023/12/04 07:35:21;;;;;;;10.70;4.47;;;;;;;2.97;100.00;100635.53;5208440;28;20068;-73
2023/12/04 07:37:52;;;;;;;11.18;4.57;;;;;;;3.03;100.00;100638.53;5210967;28;20044;-73
2023/12/04 07:40:23;;;;;;;10.65;4.40;;;;;;;3.03;100.00;100627.09;5214627;28;20032;-73
2023/12/04 07:42:53;;;;;;;8.90;4.45;;;;;;;2.99;100.00;100630.94;5210245;28;20028;-73
2023/12/04 07:45:24;;;;;;;10.02;4.50;;;;;;;2.99;100.00;100634.44;5216472;28;20029;-73
2023/12/04 07:47:54;;;;;;;9.32;4.30;;;;;;;3.01;100.00;100627.22;5219436;28;20556;-73
2023/12/04 07:50:25;;;;;;;9.20;4.32;;;;;;;3.03;100.00;100632.41;5214854;28;20031;-73
2023/12/04 07:52:55;;;;;;;8.80;4.43;;;;;;;3.01;100.00;100623.69;5214748;28;20025;-73
2023/12/04 07:55:26;;;;;;;10.20;4.80;;;;;;;3.09;100.00;100618.66;5217326;28;20036;-73
2023/12/04 07:57:56;;;;;;;9.13;4.28;;;;;;;3.08;100.00;100612.50;5210878;28;20052;-73
2023/12/04 08:00:27;;;;;;;8.95;4.68;;;;;;;3.05;100.00;100615.38;5210651;28;20029;-73
2023/12/04 08:02:57;;;;;;;8.65;4.40;;;;;;;3.05;100.00;100619.84;5212716;28;20029;-73
2023/12/04 08:05:29;;;;;;;8.27;4.55;;;;;;;3.03;100.00;100606.72;5211524;28;20043;-73
2023/12/04 08:08:00;;;;;;;9.38;5.05;;;;;;;3.07;100.00;100608.19;5213653;28;20039;-73
2023/12/04 08:10:31;;;;;;;8.43;4.43;;;;;;;3.07;100.00;100610.81;5209395;28;20545;-73
2023/12/04 08:13:01;;;;;;;8.95;4.60;;;;;;;3.10;100.00;100607.91;5209771;28;20563;-73
2023/12/04 08:15:32;;;;;;;9.70;4.47;;;;;;;3.11;100.00;100606.97;5202159;28;20030;-73
2023/12/04 08:18:03;;;;;;;8.68;4.53;;;;;;;3.14;100.00;100611.16;5212037;28;20029;-73
2023/12/04 08:20:34;;;;;;;7.68;4.35;;;;;;;3.09;100.00;100606.22;5213222;28;20017;-73
2023/12/04 08:23:05;;;;;;;10.95;4.57;;;;;;;3.10;100.00;100610.56;5206121;28;20434;-73
2023/12/04 08:25:38;;;;;;;9.30;4.50;;;;;;;3.10;100.00;100605.25;5209218;28;20028;-73
2023/12/04 08:28:09;;;;;;;9.40;4.70;;;;;;;3.09;100.00;100598.28;5208216;28;20029;-73
2023/12/04 08:30:39;;;;;;;8.25;4.13;;;;;;;3.15;100.00;100596.94;5212181;28;20032;-74
2023/12/04 08:33:10;;;;;;;8.18;4.40;;;;;;;3.15;100.00;100591.63;5210874;28;20089;-73
2023/12/04 08:35:41;;;;;;;10.10;4.28;;;;;;;3.20;100.00;100586.78;5207120;28;20021;-73
2023/12/04 08:38:11;;;;;;;9.00;4.30;;;;;;;3.28;100.00;100592.31;5210494;28;20030;-73
2023/12/04 08:40:42;;;;;;;10.80;4.28;;;;;;;3.32;100.00;100582.31;5214953;28;20039;-73
2023/12/04 08:43:14;;;;;;;11.25;4.18;;;;;;;3.30;100.00;100578.94;5203344;28;20530;-74
2023/12/04 08:45:46;;;;;;;7.13;3.70;;;;;;;3.32;100.00;100571.72;5207835;28;20041;-73
2023/12/04 08:48:16;;;;;;;10.73;4.07;;;;;;;3.37;100.00;100574.81;5217191;28;20459;-73
2023/12/04 08:50:47;;;;;;;8.20;4.07;;;;;;;3.41;100.00;100570.09;5212627;28;20022;-73
2023/12/04 08:53:18;;;;;;;9.98;4.55;;;;;;;3.37;100.00;100562.41;5212590;28;20757;-73
2023/12/04 08:55:49;;;;;;;8.10;3.53;;;;;;;3.45;100.00;100560.91;5211581;28;20044;-73
2023/12/04 08:58:19;;;;;;;16.30;4.93;;;;;;;3.48;100.00;100556.22;5210306;28;20025;-73
2023/12/04 09:00:50;;;;;;;10.18;4.05;;;;;;;3.46;100.00;100557.28;5208788;28;20025;-73
2023/12/04 09:03:22;;;;;;;9.73;3.80;;;;;;;3.46;100.00;100563.44;5199361;28;20035;-73
2023/12/04 09:05:54;;;;;;;7.68;3.80;;;;;;;3.43;100.00;100557.56;5211445;28;20264;-73
2023/12/04 09:08:27;;;;;;;9.07;4.00;;;;;;;3.47;100.00;100553.69;5213771;28;20032;-73
2023/12/04 09:10:57;;;;;;;9.65;4.55;;;;;;;3.46;100.00;100550.16;5213330;28;20028;-73
2023/12/04 09:13:29;;;;;;;8.80;4.60;;;;;;;3.43;100.00;100550.44;5211745;28;20033;-73
2023/12/04 09:16:00;;;;;;;10.05;4.55;;;;;;;3.41;100.00;100548.88;5211865;28;20055;-73
2023/12/04 09:18:30;;;;;;;9.23;4.43;;;;;;;3.48;100.00;100545.59;5209360;28;20036;-73
2023/12/04 09:21:01;;;;;;;7.30;3.67;;;;;;;3.49;100.00;100543.78;5207268;28;20329;-73
2023/12/04 09:23:31;;;;;;;10.77;4.40;;;;;;;3.45;100.00;100539.69;5212855;28;20021;-73
2023/12/04 09:26:02;;;;;;;9.77;4.45;;;;;;;3.50;100.00;100543.66;5204002;28;20025;-73
2023/12/04 09:28:32;;;;;;;9.20;3.53;;;;;;;3.49;100.00;100541.13;5213183;28;20187;-73
2023/12/04 09:31:03;;;;;;;11.20;4.28;;;;;;;3.40;100.00;100552.50;5206918;28;20469;-73
2023/12/04 09:33:34;;;;;;;10.98;4.45;;;;;;;3.30;100.00;100555.91;5215633;28;20024;-73
2023/12/04 09:36:04;;;;;;;7.07;4.00;;;;;;;3.22;100.00;100553.06;5211994;28;20021;-72
2023/12/04 09:38:36;;;;;;;8.38;4.55;;;;;;;3.18;100.00;100556.94;5214052;28;20029;-74
2023/12/04 09:41:10;;;;;;;12.20;5.20;;;;;;;3.19;100.00;100549.81;5205595;28;20029;-73
2023/12/04 09:43:41;;;;;;;12.60;6.27;;;;;;;3.14;100.00;100544.88;5209294;28;20112;-73
2023/12/04 09:46:12;;;;;;;10.73;4.97;;;;;;;3.05;100.00;100548.28;5215778;28;20354;-73
2023/12/04 09:48:43;;;;;;;9.95;4.70;;;;;;;3.04;100.00;100551.91;5205765;28;20116;-73
2023/12/04 09:51:16;;;;;;;9.60;4.88;;;;;;;3.03;100.00;100553.72;5214289;28;20017;-73
2023/12/04 09:53:48;;;;;;;10.05;4.93;;;;;;;3.03;100.00;100542.28;5216452;28;20025;-73
2023/12/04 09:56:20;;;;;;;9.90;4.38;;;;;;;2.99;100.00;100546.16;5212268;28;20177;-72
2023/12/04 09:58:56;;;;;;;10.65;5.05;;;;;;;2.97;100.00;100542.78;5208124;28;20037;-73
2023/12/04 10:01:30;;;;;;;12.32;5.93;;;;;;;3.07;100.00;100546.38;5211322;28;20075;-73
2023/12/04 10:04:04;;;;;;;13.15;4.82;;;;;;;2.92;100.00;100537.03;5209627;28;20078;-73
2023/12/04 10:06:38;;;;;;;10.63;5.07;;;;;;;2.91;100.00;100533.50;5217139;28;20387;-73
2023/12/04 10:09:11;;;;;;;14.40;5.60;;;;;;;2.88;100.00;100533.78;5211948;28;20057;-73
2023/12/04 10:11:41;;;;;;;13.55;5.03;;;;;;;2.88;100.00;100530.28;5212195;28;20035;-73
2023/12/04 10:14:17;;;;;;;10.55;5.53;;;;;;;2.82;100.00;100521.88;5212336;28;20013;-73
2023/12/04 10:16:49;;;;;;;11.43;5.60;;;;;;;2.89;100.00;100519.56;5207446;28;20176;-73
2023/12/04 10:19:30;;;;;;;13.10;5.28;;;;;;;2.87;100.00;100512.72;5211843;28;20025;-74
2023/12/04 10:22:01;;;;;;;10.38;5.18;;;;;;;2.93;100.00;100509.56;5209087;28;20082;-74
2023/12/04 10:24:35;;;;;;;13.23;5.95;;;;;;;2.91;100.00;100503.53;5203814;28;20033;-74
2023/12/04 10:27:10;;;;;;;13.27;6.07;;;;;;;2.96;100.00;100491.59;5204655;28;20387;-74
2023/12/04 10:29:43;;;;;;;11.73;5.72;;;;;;;2.92;100.00;100484.88;5207845;28;20029;-74
2023/12/04 10:32:19;;;;;;;14.82;7.03;;;;;;;3.03;100.00;100482.16;5209723;28;20030;-74
2023/12/04 10:34:50;;;;;;;12.20;6.70;;;;;;;3.00;100.00;100474.47;5208411;28;20493;-74
2023/12/04 10:37:22;;;;;;;13.07;5.90;;;;;;;3.00;100.00;100465.66;5214085;28;20021;-73
2023/12/04 10:39:53;;;;;;;15.55;6.90;;;;;;;3.05;100.00;100452.88;5204641;28;20033;-74
2023/12/04 10:42:27;;;;;;;13.77;6.80;;;;;;;3.07;100.00;100440.34;5209685;28;20036;-74
2023/12/04 10:44:58;;;;;;;12.93;6.20;;;;;;;3.03;100.00;100442.41;5204818;28;20477;-74
2023/12/04 10:47:31;;;;;;;13.75;6.22;;;;;;;3.09;100.00;100441.06;5203513;28;20029;-74
2023/12/04 10:50:02;;;;;;;18.42;6.38;;;;;;;3.05;100.00;100429.03;5206850;28;20017;-74
2023/12/04 10:52:33;;;;;;;16.55;6.82;;;;;;;3.11;100.00;100424.06;5205673;28;20029;-74
2023/12/04 10:55:06;;;;;;;16.27;7.00;;;;;;;3.11;100.00;100432.03;5208518;28;20029;-74
2023/12/04 10:57:39;;;;;;;17.48;7.15;;;;;;;3.09;100.00;100398.66;5193625;28;20485;-74
2023/12/04 11:00:16;;;;;;;14.65;6.65;;;;;;;3.06;100.00;100412.16;5204349;28;20492;-74
2023/12/04 11:02:48;;;;;;;14.95;7.38;;;;;;;3.09;100.00;100404.78;5209469;28;20036;-74
2023/12/04 11:05:21;;;;;;;18.10;6.93;;;;;;;3.12;100.00;100390.44;5208249;28;20037;-74
2023/12/04 11:07:56;;;;;;;13.63;6.75;;;;;;;3.17;100.00;100400.66;5202237;28;20535;-74
2023/12/04 11:10:31;;;;;;;13.73;7.00;;;;;;;3.31;100.00;100379.97;5204632;28;20021;-74
2023/12/04 11:13:08;;;;;;;17.80;8.70;;;;;;;3.37;100.00;100379.44;5199283;28;20044;-74
2023/12/04 11:15:41;;;;;;;13.65;6.88;;;;;;;3.38;100.00;100389.06;5204050;28;20056;-74
2023/12/04 11:18:14;;;;;;;15.98;6.35;;;;;;;3.37;100.00;100363.53;5206931;28;20036;-74
2023/12/04 11:20:52;;;;;;;12.73;6.35;;;;;;;3.48;100.00;100365.25;5207284;28;20271;-73
2023/12/04 11:23:24;;;;;;;11.90;6.57;;;;;;;3.40;100.00;100358.94;5212160;28;20055;-73
2023/12/04 11:25:55;;;;;;;14.13;6.32;;;;;;;3.28;100.00;100358.19;5204642;28;20380;-73
2023/12/04 11:28:28;;;;;;;16.75;6.32;;;;;;;3.23;100.00;100357.72;5210328;28;20029;-73
2023/12/04 11:31:00;;;;;;;17.33;8.15;;;;;;;3.32;100.00;100359.59;5213016;28;20057;-73
2023/12/04 11:33:38;;;;;;;14.30;6.55;;;;;;;3.31;100.00;100348.16;5211765;28;20033;-73
2023/12/04 11:36:11;;;;;;;15.27;6.80;;;;;;;3.38;100.00;100344.00;5212639;28;20025;-73
2023/12/04 11:38:46;;;;;;;15.35;7.13;;;;;;;3.37;100.00;100337.00;5213077;28;20289;-73